Huvudsida
METAR-TAF:

METAR-TAF

Flygplatser :

Iqaluit Airport

Iqaluit, Nunavut, Kanada

latitud: 63-45N, longitud: 068-33W, höjd: 34 m

Aktuellt väderrapport

Denna rapport gjordes för 25 minuter sedan, klockan 13:00 UTC
Stilla vind
Temperatur -11°C
Fuktighet 72%
Tryck 1017 hPa
Sikt: 48.3 km
Få moln på en höjd av 14000 ft
Brutna moln på en höjd av 17000 ft

METAR: CYFB 141300Z 00000KT 30SM FEW140 BKN170 M11/M15 A3004 RMK AC1AC7 AC TR SLP178

Tid: 09:25 (13:25 UTC)

Väderprognos

Denna rapport gjordes för 1 timme och 45 minuter sedan, klockan 11:40 UTC
Prognos gäller från 14 kl. 12 UTC till 15 kl. 12 UTC
Vind 3 kt varierande vindriktning
Sikt: 10 km
Få moln på en höjd av 1000 ft
Brutna moln på en höjd av 16000 ft
Blir
från 15 kl. 02 UTC till 15 kl. 04 UTC
Vind 8 kt från nord

TAF: CYFB 141140Z 1412/1512 VRB03KT P6SM FEW010 BKN160 BECMG 1502/1504 36008KT RMK NXT FCST BY 141800Z

Aktuella väderrapporter och prognoser från 4000 flygplatser (METAR- och TAF-rapporter).

De tillgängliga stationerna syns som gula och röda prickar på kartan.

För musen över prickarna för att se namnen på stationerna.

Klicka sedan för att få väderrapporter och prognoser.

För att ändra kartan: Klicka på de gröna knapparna med ett svart kors på för att zooma in; den gröna knappen med ett streck på för att zooma ut; eller på de gröna pilarna för angränsande kartor.


METAR-TAF: